createdAt,value
2022-07-29T00:00:00.659Z,35.54
2022-07-29T00:02:28.100Z,35.86
2022-07-29T00:04:55.430Z,35.49
2022-07-29T00:07:22.762Z,35.59
2022-07-29T00:09:51.047Z,35.67
2022-07-29T00:12:21.409Z,35.83
2022-07-29T00:14:55.365Z,35.39
2022-07-29T00:17:24.081Z,35.32
2022-07-29T00:19:51.365Z,35.78
2022-07-29T00:22:18.676Z,35.41
2022-07-29T00:24:45.916Z,35.52
2022-07-29T00:27:13.082Z,35.26
2022-07-29T00:29:40.261Z,35.19
2022-07-29T00:32:07.949Z,35.72
2022-07-29T00:34:36.571Z,35.43
2022-07-29T00:37:03.777Z,35.17
2022-07-29T00:39:30.969Z,35.35
2022-07-29T00:41:58.153Z,35.58
2022-07-29T00:44:25.305Z,35.25
2022-07-29T00:46:52.884Z,35.25
2022-07-29T00:49:20.217Z,35.68
2022-07-29T00:51:50.382Z,35.36
2022-07-29T00:54:18.017Z,35.62
2022-07-29T00:56:45.666Z,35.54
2022-07-29T00:59:12.841Z,35.20
2022-07-29T01:01:40.191Z,35.71
2022-07-29T01:04:07.795Z,35.70
2022-07-29T01:06:36.388Z,35.65
2022-07-29T01:09:05.377Z,35.39
2022-07-29T01:11:33.553Z,35.63
2022-07-29T01:14:01.879Z,35.73
2022-07-29T01:16:34.389Z,35.77
2022-07-29T01:19:13.846Z,35.25
2022-07-29T01:21:52.462Z,35.48
2022-07-29T01:24:43.765Z,35.38
2022-07-29T01:27:33.520Z,35.39
2022-07-29T01:30:05.288Z,35.61
2022-07-29T01:32:38.206Z,35.62
2022-07-29T01:35:11.414Z,35.60
2022-07-29T01:37:43.529Z,35.63
2022-07-29T01:40:19.364Z,35.23
2022-07-29T01:42:52.674Z,35.54
2022-07-29T01:45:25.691Z,35.26
2022-07-29T01:47:59.475Z,35.81
2022-07-29T01:50:30.354Z,35.46
2022-07-29T01:53:00.998Z,35.53
2022-07-29T01:55:31.998Z,35.68
2022-07-29T01:58:01.984Z,35.55
2022-07-29T02:00:31.866Z,35.37
2022-07-29T02:03:00.270Z,35.44
2022-07-29T02:05:29.776Z,35.53
2022-07-29T02:08:00.162Z,35.55
2022-07-29T02:10:32.418Z,35.49
2022-07-29T02:13:00.735Z,35.25
2022-07-29T02:15:32.755Z,35.34
2022-07-29T02:18:05.537Z,35.39
2022-07-29T02:20:33.734Z,35.36
2022-07-29T02:23:02.568Z,35.60
2022-07-29T02:25:36.822Z,35.07
2022-07-29T02:28:06.736Z,35.22
2022-07-29T02:30:40.123Z,35.24
2022-07-29T02:33:08.835Z,35.48
2022-07-29T02:35:36.491Z,35.45
2022-07-29T02:38:04.635Z,35.31
2022-07-29T02:40:32.152Z,35.19
2022-07-29T02:43:00.268Z,35.24
2022-07-29T02:45:28.721Z,35.54
2022-07-29T02:48:00.620Z,35.69
2022-07-29T02:50:32.721Z,35.56
2022-07-29T02:53:06.413Z,35.56
2022-07-29T02:55:37.917Z,35.55
2022-07-29T02:58:11.914Z,35.25
2022-07-29T03:00:41.346Z,35.44
2022-07-29T03:03:15.492Z,35.56
2022-07-29T03:05:42.959Z,35.42
2022-07-29T03:08:12.369Z,35.55
2022-07-29T03:10:43.543Z,35.42
2022-07-29T03:13:12.230Z,35.38
2022-07-29T03:15:39.965Z,35.45
2022-07-29T03:18:07.969Z,35.12
2022-07-29T03:20:38.359Z,35.55
2022-07-29T03:23:05.630Z,35.52
2022-07-29T03:25:32.828Z,35.58
2022-07-29T03:28:00.443Z,35.40
2022-07-29T03:30:28.050Z,35.31
2022-07-29T03:32:56.631Z,35.34
2022-07-29T03:35:26.110Z,35.49
2022-07-29T03:37:54.655Z,35.30
2022-07-29T03:40:26.208Z,35.53
2022-07-29T03:42:56.439Z,35.40
2022-07-29T03:45:25.189Z,35.48
2022-07-29T03:48:00.604Z,35.42
2022-07-29T03:50:29.661Z,35.25
2022-07-29T03:52:59.045Z,35.56
2022-07-29T03:55:27.273Z,35.17
2022-07-29T03:57:56.345Z,35.42
2022-07-29T04:00:25.207Z,35.20
2022-07-29T04:02:52.434Z,35.09
2022-07-29T04:05:20.032Z,35.24
2022-07-29T04:07:48.545Z,35.19
2022-07-29T04:10:17.733Z,35.54
2022-07-29T04:12:55.488Z,35.20
2022-07-29T04:15:22.715Z,35.47
2022-07-29T04:17:49.837Z,35.47
2022-07-29T04:20:17.059Z,35.63
2022-07-29T04:22:44.253Z,35.45
2022-07-29T04:25:11.463Z,35.27
2022-07-29T04:27:39.964Z,35.52
2022-07-29T04:30:08.259Z,35.07
2022-07-29T04:32:35.390Z,35.24
2022-07-29T04:35:02.587Z,35.57
2022-07-29T04:37:29.738Z,35.26
2022-07-29T04:39:56.875Z,35.02
2022-07-29T04:42:26.689Z,35.13
2022-07-29T04:44:56.361Z,35.17
2022-07-29T04:47:23.611Z,35.40
2022-07-29T04:49:50.728Z,35.41
2022-07-29T04:52:17.914Z,35.41
2022-07-29T04:54:45.070Z,35.47
2022-07-29T04:57:12.224Z,38.14
2022-07-29T04:59:39.374Z,38.80
2022-07-29T05:02:07.914Z,36.46
2022-07-29T05:04:35.050Z,36.34
2022-07-29T05:07:02.224Z,35.85
2022-07-29T05:09:29.362Z,36.15
2022-07-29T05:11:56.521Z,35.68
2022-07-29T05:14:23.701Z,35.75
2022-07-29T05:16:50.855Z,35.68
2022-07-29T05:19:19.530Z,35.80
2022-07-29T05:21:46.680Z,35.68
2022-07-29T05:24:14.246Z,35.47
2022-07-29T05:26:43.506Z,35.81
2022-07-29T05:29:44.028Z,35.83
2022-07-29T05:31:57.770Z,35.65
2022-07-29T05:34:26.294Z,35.83
2022-07-29T05:36:53.486Z,35.38
2022-07-29T05:39:20.704Z,35.44
2022-07-29T05:41:51.818Z,35.49
2022-07-29T05:44:19.776Z,35.47
2022-07-29T05:46:46.989Z,35.39
2022-07-29T05:49:26.930Z,35.52
2022-07-29T05:51:56.102Z,35.72
2022-07-29T05:54:23.245Z,35.33
2022-07-29T05:56:50.451Z,35.63
2022-07-29T05:59:18.103Z,35.34
2022-07-29T06:01:45.672Z,35.63
2022-07-29T06:04:13.075Z,35.38
2022-07-29T06:06:40.650Z,35.32
2022-07-29T06:09:12.754Z,35.39
2022-07-29T06:11:41.553Z,35.38
2022-07-29T06:14:08.675Z,35.44
2022-07-29T06:16:35.915Z,35.26
2022-07-29T06:19:03.395Z,35.47
2022-07-29T06:21:30.528Z,35.25
2022-07-29T06:23:57.735Z,35.56
2022-07-29T06:26:30.339Z,35.51
2022-07-29T06:28:58.452Z,35.18
2022-07-29T06:31:25.647Z,35.11
2022-07-29T06:33:54.682Z,35.40
2022-07-29T06:36:22.928Z,35.32
2022-07-29T06:38:52.309Z,35.13
2022-07-29T06:41:20.898Z,35.47
2022-07-29T06:43:51.731Z,35.09
2022-07-29T06:46:21.289Z,35.33
2022-07-29T06:48:49.151Z,35.27
2022-07-29T06:51:16.788Z,35.49
2022-07-29T06:54:00.262Z,35.34
2022-07-29T06:56:30.764Z,35.41
2022-07-29T06:58:59.285Z,35.34
2022-07-29T07:01:28.749Z,35.13
2022-07-29T07:03:55.922Z,35.05
2022-07-29T07:06:23.175Z,35.34
2022-07-29T07:08:50.331Z,35.15
2022-07-29T07:11:17.482Z,35.54
2022-07-29T07:13:44.660Z,35.20
2022-07-29T07:16:13.508Z,35.48
2022-07-29T07:18:40.720Z,35.17
2022-07-29T07:21:07.941Z,35.21
2022-07-29T07:23:35.098Z,35.22
2022-07-29T07:26:02.251Z,35.55
2022-07-29T07:28:29.581Z,35.04
2022-07-29T07:30:56.750Z,35.35
2022-07-29T07:33:25.273Z,35.50
2022-07-29T07:35:52.494Z,35.31
2022-07-29T07:38:19.671Z,35.60
2022-07-29T07:40:46.821Z,35.10
2022-07-29T07:43:14.023Z,35.22
2022-07-29T07:45:41.269Z,35.58
2022-07-29T07:48:08.545Z,35.15
2022-07-29T07:50:37.133Z,35.48
2022-07-29T07:53:04.455Z,35.44
2022-07-29T07:55:47.563Z,35.42
2022-07-29T07:58:18.723Z,35.07
2022-07-29T08:00:45.962Z,35.07
2022-07-29T08:03:16.935Z,35.17
2022-07-29T08:05:45.907Z,35.07
2022-07-29T08:08:13.093Z,35.12
2022-07-29T08:10:40.256Z,35.39
2022-07-29T08:13:09.020Z,35.26
2022-07-29T08:15:36.625Z,35.40
2022-07-29T08:18:08.481Z,35.20
2022-07-29T08:20:36.516Z,35.16
2022-07-29T08:23:06.050Z,35.59
2022-07-29T08:25:33.219Z,35.64
2022-07-29T08:28:04.925Z,35.47
2022-07-29T08:30:32.381Z,35.60
2022-07-29T08:32:59.926Z,35.42
2022-07-29T08:35:29.172Z,35.63
2022-07-29T08:37:59.327Z,35.56
2022-07-29T08:40:32.137Z,35.54
2022-07-29T08:43:04.637Z,35.26
2022-07-29T08:45:41.982Z,35.42
2022-07-29T08:48:15.883Z,35.22
2022-07-29T08:50:46.489Z,35.20
2022-07-29T08:53:15.187Z,35.19
2022-07-29T08:55:45.040Z,35.53
2022-07-29T08:58:15.615Z,35.35
2022-07-29T09:00:45.729Z,35.22
2022-07-29T09:03:16.889Z,35.52
2022-07-29T09:05:48.140Z,35.19
2022-07-29T09:08:16.857Z,35.32
2022-07-29T09:10:45.934Z,35.20
2022-07-29T09:13:13.161Z,35.35
2022-07-29T09:15:40.373Z,35.41
2022-07-29T09:18:07.597Z,35.71
2022-07-29T09:20:53.517Z,35.50
2022-07-29T09:23:23.420Z,35.55
2022-07-29T09:25:53.410Z,35.90
2022-07-29T09:28:20.551Z,35.72
2022-07-29T09:30:54.962Z,35.71
2022-07-29T09:33:23.136Z,35.81
2022-07-29T09:36:00.588Z,35.68
2022-07-29T09:38:29.170Z,35.83
2022-07-29T09:41:05.745Z,35.45
2022-07-29T09:43:34.038Z,35.80
2022-07-29T09:46:12.265Z,35.54
2022-07-29T09:48:39.793Z,35.38
2022-07-29T09:51:20.568Z,35.79
2022-07-29T09:53:49.467Z,35.52
2022-07-29T09:56:17.970Z,35.83
2022-07-29T09:58:45.173Z,35.84
2022-07-29T10:01:13.422Z,35.72
2022-07-29T10:03:52.189Z,35.46
2022-07-29T10:06:19.458Z,35.62
2022-07-29T10:08:47.503Z,35.55
2022-07-29T10:11:16.740Z,35.77
2022-07-29T10:13:46.759Z,35.68
2022-07-29T10:16:15.331Z,35.56
2022-07-29T10:18:43.400Z,35.94
2022-07-29T10:21:10.647Z,35.53
2022-07-29T10:23:46.807Z,35.95
2022-07-29T10:26:14.587Z,35.83
2022-07-29T10:28:41.762Z,35.70
2022-07-29T10:31:20.203Z,35.60
2022-07-29T10:33:59.098Z,35.75
2022-07-29T10:36:44.098Z,35.88
2022-07-29T10:39:24.967Z,35.64
2022-07-29T10:42:06.977Z,35.64
2022-07-29T10:44:37.179Z,35.49
2022-07-29T10:47:06.211Z,35.65
2022-07-29T10:49:34.527Z,35.34
2022-07-29T10:52:06.029Z,35.52
2022-07-29T10:54:47.751Z,35.67
2022-07-29T10:57:17.685Z,35.71
2022-07-29T10:59:46.990Z,35.50
2022-07-29T11:02:44.766Z,35.92
2022-07-29T11:05:14.351Z,35.98
2022-07-29T11:08:26.260Z,35.97
2022-07-29T11:11:37.652Z,35.81
2022-07-29T11:14:04.991Z,35.68
2022-07-29T11:17:00.429Z,35.56
2022-07-29T11:19:30.609Z,35.85
2022-07-29T11:21:58.688Z,36.01
2022-07-29T11:24:30.092Z,35.75
2022-07-29T11:27:11.217Z,36.03
2022-07-29T11:30:01.242Z,35.87
2022-07-29T11:32:38.012Z,35.61
2022-07-29T11:35:37.396Z,35.55
2022-07-29T11:38:28.013Z,35.91
2022-07-29T11:44:08.929Z,35.60
2022-07-29T11:46:47.501Z,35.78
2022-07-29T11:49:20.436Z,36.08
2022-07-29T11:51:53.460Z,35.80
2022-07-29T11:54:27.514Z,35.78
2022-07-29T11:56:55.104Z,35.66
2022-07-29T11:59:22.767Z,35.67
2022-07-29T12:02:18.428Z,36.04
2022-07-29T12:04:51.694Z,35.89
2022-07-29T12:07:33.688Z,35.64
2022-07-29T12:10:03.846Z,35.99
2022-07-29T12:12:31.043Z,35.81
2022-07-29T12:14:58.248Z,35.83
2022-07-29T12:17:30.582Z,36.00
2022-07-29T12:20:00.086Z,35.83
2022-07-29T12:22:30.123Z,35.57
2022-07-29T12:25:31.919Z,35.62
2022-07-29T12:27:59.750Z,35.60
2022-07-29T12:30:39.419Z,35.81
2022-07-29T12:33:23.229Z,35.57
2022-07-29T12:36:06.045Z,35.94
2022-07-29T12:38:36.447Z,35.80
2022-07-29T12:41:04.345Z,35.54
2022-07-29T12:43:32.489Z,35.69
2022-07-29T12:46:13.415Z,35.66
2022-07-29T12:48:42.085Z,35.91
2022-07-29T12:51:10.350Z,35.61
2022-07-29T12:53:39.411Z,36.17
2022-07-29T12:56:41.392Z,35.87
2022-07-29T12:59:12.770Z,36.03
2022-07-29T13:01:39.960Z,35.63
2022-07-29T13:04:07.320Z,35.88
2022-07-29T13:06:38.258Z,35.74
2022-07-29T13:09:09.721Z,35.77
2022-07-29T13:11:39.391Z,35.52
2022-07-29T13:14:08.285Z,35.80
2022-07-29T13:16:35.752Z,35.63
2022-07-29T13:19:10.979Z,35.73
2022-07-29T13:21:39.140Z,35.47
2022-07-29T13:24:08.279Z,35.41
2022-07-29T13:26:36.031Z,35.69
2022-07-29T13:29:03.378Z,35.30
2022-07-29T13:31:31.057Z,35.67
2022-07-29T13:33:58.184Z,35.67
2022-07-29T13:36:25.481Z,35.43
2022-07-29T13:38:52.656Z,35.46
2022-07-29T13:41:21.191Z,35.83
2022-07-29T13:43:48.358Z,35.88
2022-07-29T13:46:17.312Z,35.87
2022-07-29T13:48:44.604Z,35.90
2022-07-29T13:51:12.059Z,35.88
2022-07-29T13:53:39.189Z,35.67
2022-07-29T13:56:06.390Z,35.93
2022-07-29T13:58:35.127Z,35.83
2022-07-29T14:01:02.327Z,35.38
2022-07-29T14:03:29.515Z,35.39
2022-07-29T14:05:56.660Z,35.26
2022-07-29T14:08:23.839Z,35.60
2022-07-29T14:10:51.319Z,35.28
2022-07-29T14:13:25.218Z,35.67
2022-07-29T14:15:54.800Z,35.67
2022-07-29T14:18:21.997Z,35.41
2022-07-29T14:20:49.309Z,35.41
2022-07-29T14:23:16.523Z,35.32
2022-07-29T14:25:44.575Z,35.38
2022-07-29T14:28:12.295Z,35.70
2022-07-29T14:30:41.869Z,35.56
2022-07-29T14:33:10.395Z,35.45
2022-07-29T14:35:37.609Z,35.79
2022-07-29T14:38:04.790Z,35.79
2022-07-29T14:40:31.976Z,35.51
2022-07-29T14:42:59.150Z,35.91
2022-07-29T14:45:26.323Z,35.34
2022-07-29T14:47:57.263Z,35.40
2022-07-29T14:50:31.329Z,35.60
2022-07-29T14:52:59.025Z,35.56
2022-07-29T14:55:26.561Z,35.87
2022-07-29T14:57:59.464Z,35.39
2022-07-29T15:00:33.138Z,35.61
2022-07-29T15:03:02.413Z,35.79
2022-07-29T15:05:32.259Z,35.83
2022-07-29T15:08:00.065Z,35.77
2022-07-29T15:10:27.263Z,36.80
2022-07-29T15:12:54.443Z,37.03
2022-07-29T15:15:21.874Z,36.45
2022-07-29T15:17:49.008Z,36.35
2022-07-29T15:20:16.471Z,36.42
2022-07-29T15:22:44.992Z,36.58
2022-07-29T15:25:12.158Z,37.12
2022-07-29T15:27:39.314Z,36.53
2022-07-29T15:30:07.782Z,36.66
2022-07-29T15:32:34.963Z,36.29
2022-07-29T15:35:02.211Z,36.56
2022-07-29T15:37:29.349Z,36.43
2022-07-29T15:40:17.957Z,36.35
2022-07-29T15:42:45.087Z,36.55
2022-07-29T15:45:12.236Z,36.32
2022-07-29T15:47:39.403Z,36.97
2022-07-29T15:50:07.711Z,36.67
2022-07-29T15:52:34.842Z,36.68
2022-07-29T15:55:02.002Z,36.77
2022-07-29T15:57:30.513Z,36.81
2022-07-29T15:59:57.704Z,36.52
2022-07-29T16:02:24.897Z,36.85
2022-07-29T16:04:52.096Z,36.77
2022-07-29T16:07:19.376Z,36.59
2022-07-29T16:09:52.384Z,36.98
2022-07-29T16:12:20.279Z,36.61
2022-07-29T16:14:48.847Z,36.94
2022-07-29T16:17:16.026Z,36.99
2022-07-29T16:19:43.954Z,36.87
2022-07-29T16:22:11.970Z,36.92
2022-07-29T16:24:39.241Z,36.91
2022-07-29T16:27:06.423Z,36.92
2022-07-29T16:29:33.648Z,36.65
2022-07-29T16:32:02.840Z,36.67
2022-07-29T16:34:30.053Z,36.51
2022-07-29T16:36:57.230Z,36.70
2022-07-29T16:39:24.374Z,36.46
2022-07-29T16:41:51.573Z,36.86
2022-07-29T16:44:18.710Z,36.72
2022-07-29T16:46:45.937Z,36.80
2022-07-29T16:49:18.363Z,36.66
2022-07-29T16:51:46.804Z,36.71
2022-07-29T16:54:13.947Z,36.40
2022-07-29T16:56:41.231Z,36.80
2022-07-29T16:59:08.460Z,36.66
2022-07-29T17:01:35.630Z,36.82
2022-07-29T17:04:02.833Z,36.42
2022-07-29T17:06:31.362Z,36.41
2022-07-29T17:08:58.531Z,36.64
2022-07-29T17:11:53.270Z,36.37
2022-07-29T17:14:12.791Z,36.67
2022-07-29T17:16:39.970Z,36.42
2022-07-29T17:19:07.187Z,36.24
2022-07-29T17:21:35.755Z,36.39
2022-07-29T17:24:14.516Z,36.54
2022-07-29T17:26:41.682Z,36.44
2022-07-29T17:29:08.908Z,36.14
2022-07-29T17:31:38.527Z,36.52
2022-07-29T17:34:05.752Z,36.40
2022-07-29T17:36:33.293Z,36.45
2022-07-29T17:39:05.041Z,36.36
2022-07-29T17:41:32.263Z,36.40
2022-07-29T17:43:59.518Z,36.06
2022-07-29T17:46:27.495Z,36.45
2022-07-29T17:48:55.245Z,36.27
2022-07-29T17:51:22.924Z,36.27
2022-07-29T17:53:50.241Z,37.13
2022-07-29T17:56:19.367Z,37.14
2022-07-29T17:58:46.587Z,37.08
2022-07-29T18:01:13.858Z,37.10
2022-07-29T18:03:41.227Z,36.86
2022-07-29T18:06:08.740Z,36.81
2022-07-29T18:08:36.051Z,37.15
2022-07-29T18:11:03.569Z,36.86
2022-07-29T18:13:32.394Z,37.10
2022-07-29T18:16:00.634Z,36.86
2022-07-29T18:18:28.154Z,36.67
2022-07-29T18:20:55.578Z,36.57
2022-07-29T18:23:22.747Z,36.69
2022-07-29T18:25:49.923Z,36.54
2022-07-29T18:28:17.213Z,36.57
2022-07-29T18:30:47.124Z,36.63
2022-07-29T18:33:22.514Z,36.44
2022-07-29T18:35:52.414Z,36.58
2022-07-29T18:38:37.246Z,36.31
2022-07-29T18:41:04.379Z,36.31
2022-07-29T18:43:31.553Z,36.45
2022-07-29T18:46:00.088Z,36.86
2022-07-29T18:48:27.481Z,36.60
2022-07-29T18:50:54.633Z,36.47
2022-07-29T18:53:21.787Z,36.41
2022-07-29T18:55:48.924Z,36.42
2022-07-29T18:58:16.095Z,36.64
2022-07-29T19:00:43.269Z,36.36
2022-07-29T19:03:11.954Z,36.73
2022-07-29T19:05:39.189Z,36.30
2022-07-29T19:08:06.380Z,36.56
2022-07-29T19:10:33.561Z,36.21
2022-07-29T19:13:00.718Z,36.58
2022-07-29T19:15:27.945Z,36.49
2022-07-29T19:17:59.163Z,36.58
2022-07-29T19:20:29.619Z,36.52
2022-07-29T19:22:56.835Z,36.78
2022-07-29T19:25:24.310Z,36.28
2022-07-29T19:27:51.692Z,36.66
2022-07-29T19:30:18.903Z,36.47
2022-07-29T19:32:46.176Z,36.73
2022-07-29T19:35:13.376Z,36.44
2022-07-29T19:37:41.891Z,36.49
2022-07-29T19:40:09.526Z,36.88
2022-07-29T19:42:36.695Z,36.80
2022-07-29T19:45:04.514Z,36.53
2022-07-29T19:47:31.649Z,36.47
2022-07-29T19:49:58.780Z,36.83
2022-07-29T19:52:25.943Z,36.44
2022-07-29T19:54:54.451Z,36.84
2022-07-29T19:57:21.649Z,36.29
2022-07-29T19:59:48.971Z,36.31
2022-07-29T20:02:16.897Z,36.37
2022-07-29T20:04:44.184Z,36.30
2022-07-29T20:07:11.338Z,36.33
2022-07-29T20:09:38.980Z,36.59
2022-07-29T20:12:08.542Z,36.46
2022-07-29T20:14:36.133Z,36.82
2022-07-29T20:17:03.712Z,36.46
2022-07-29T20:19:30.994Z,36.70
2022-07-29T20:21:58.192Z,36.83
2022-07-29T20:24:26.572Z,36.65
2022-07-29T20:26:53.743Z,36.47
2022-07-29T20:29:22.332Z,36.78
2022-07-29T20:31:53.313Z,36.60
2022-07-29T20:34:24.114Z,36.77
2022-07-29T20:36:51.402Z,36.52
2022-07-29T20:39:18.609Z,36.50
2022-07-29T20:41:45.774Z,36.89
2022-07-29T20:44:12.966Z,36.78
2022-07-29T20:46:41.717Z,36.48
2022-07-29T20:49:08.944Z,36.75
2022-07-29T20:51:43.649Z,36.51
2022-07-29T20:54:11.518Z,36.25
2022-07-29T20:56:38.832Z,36.55
2022-07-29T20:59:06.051Z,36.58
2022-07-29T21:01:33.458Z,36.71
2022-07-29T21:04:02.323Z,36.78
2022-07-29T21:06:29.774Z,36.48
2022-07-29T21:08:56.940Z,36.43
2022-07-29T21:11:43.306Z,36.86
2022-07-29T21:14:11.575Z,36.81
2022-07-29T21:16:38.751Z,36.52
2022-07-29T21:19:07.245Z,36.98
2022-07-29T21:21:34.395Z,36.75
2022-07-29T21:24:01.646Z,36.98
2022-07-29T21:26:28.882Z,36.76
2022-07-29T21:28:56.225Z,36.80
2022-07-29T21:31:23.362Z,36.85
2022-07-29T21:33:50.518Z,36.55
2022-07-29T21:36:47.086Z,36.80
2022-07-29T21:39:06.158Z,36.54
2022-07-29T21:41:33.413Z,36.84
2022-07-29T21:44:01.330Z,36.63
2022-07-29T21:46:28.820Z,36.87
2022-07-29T21:48:56.052Z,36.64
2022-07-29T21:51:24.606Z,36.48
2022-07-29T21:53:53.050Z,36.92
2022-07-29T21:56:20.436Z,36.78
2022-07-29T21:58:49.768Z,36.78
2022-07-29T22:01:17.097Z,36.53
2022-07-29T22:03:44.268Z,36.91
2022-07-29T22:06:17.942Z,36.99
2022-07-29T22:08:46.946Z,36.55
2022-07-29T22:11:14.104Z,36.83
2022-07-29T22:13:41.262Z,36.66
2022-07-29T22:16:08.410Z,36.63
2022-07-29T22:18:35.607Z,36.75
2022-07-29T22:21:02.751Z,36.96
2022-07-29T22:23:29.900Z,37.17
2022-07-29T22:25:58.406Z,36.78
2022-07-29T22:28:25.572Z,36.82
2022-07-29T22:30:52.818Z,37.12
2022-07-29T22:33:20.028Z,36.93
2022-07-29T22:35:48.486Z,36.91
2022-07-29T22:38:16.565Z,37.00
2022-07-29T22:40:43.730Z,36.66
2022-07-29T22:43:12.406Z,36.71
2022-07-29T22:45:39.683Z,37.07
2022-07-29T22:48:06.904Z,36.94
2022-07-29T22:50:34.142Z,36.88
2022-07-29T22:53:01.317Z,36.97
2022-07-29T22:55:28.502Z,37.06
2022-07-29T22:57:55.662Z,36.94
2022-07-29T23:00:24.231Z,37.03
2022-07-29T23:02:51.476Z,37.16
2022-07-29T23:05:18.648Z,37.22
2022-07-29T23:07:45.796Z,37.18
2022-07-29T23:10:12.984Z,36.86
2022-07-29T23:12:40.131Z,37.06
2022-07-29T23:15:07.805Z,36.78
2022-07-29T23:17:36.983Z,37.28
2022-07-29T23:20:06.658Z,37.28
2022-07-29T23:22:33.848Z,36.95
2022-07-29T23:25:01.066Z,36.83
2022-07-29T23:27:28.278Z,36.77
2022-07-29T23:29:55.438Z,37.03
2022-07-29T23:32:22.587Z,37.01
2022-07-29T23:34:51.089Z,36.64
2022-07-29T23:37:18.246Z,36.96
2022-07-29T23:39:45.409Z,36.81
2022-07-29T23:42:12.623Z,37.19
2022-07-29T23:44:39.833Z,36.78
2022-07-29T23:47:07.042Z,36.86
2022-07-29T23:49:34.375Z,37.20
2022-07-29T23:52:03.046Z,36.91
2022-07-29T23:54:30.194Z,37.19
2022-07-29T23:56:57.566Z,36.84
2022-07-29T23:59:25.300Z,36.85
